createdAt,value
2022-11-04T00:01:49.178Z,0.98
2022-11-04T00:04:17.911Z,0.70
2022-11-04T00:06:44.667Z,1.00
2022-11-04T00:09:15.487Z,1.00
2022-11-04T00:12:00.724Z,0.90
2022-11-04T00:14:30.166Z,0.85
2022-11-04T00:17:18.189Z,0.70
2022-11-04T00:20:04.356Z,0.90
2022-11-04T00:22:49.691Z,1.02
2022-11-04T00:25:35.146Z,1.08
2022-11-04T00:28:22.251Z,0.70
2022-11-04T00:30:48.718Z,0.82
2022-11-04T00:33:27.499Z,0.95
2022-11-04T00:35:56.584Z,0.90
2022-11-04T00:38:24.846Z,0.90
2022-11-04T00:40:51.308Z,1.00
2022-11-04T00:43:17.862Z,0.77
2022-11-04T00:48:11.287Z,1.10
2022-11-04T00:50:37.894Z,1.00
2022-11-04T00:53:05.021Z,0.80
2022-11-04T00:55:31.748Z,1.00
2022-11-04T00:57:59.093Z,1.20
2022-11-04T01:00:25.901Z,1.00
2022-11-04T01:02:52.395Z,0.90
2022-11-04T01:05:18.838Z,1.10
2022-11-04T01:07:45.216Z,1.00
2022-11-04T01:10:11.652Z,1.00
2022-11-04T01:12:38.062Z,0.85
2022-11-04T01:15:05.047Z,0.90
2022-11-04T01:17:31.421Z,1.00
2022-11-04T01:19:57.854Z,0.90
2022-11-04T01:22:24.375Z,0.95
2022-11-04T01:27:17.183Z,0.90
2022-11-04T01:29:43.612Z,0.80
2022-11-04T01:32:10.001Z,1.02
2022-11-04T01:34:42.291Z,0.80
2022-11-04T01:37:10.751Z,0.82
2022-11-04T01:39:37.114Z,0.80
2022-11-04T01:44:51.681Z,0.77
2022-11-04T01:47:29.624Z,0.80
2022-11-04T01:50:16.001Z,0.80
2022-11-04T01:52:51.373Z,1.00
2022-11-04T01:55:23.489Z,0.70
2022-11-04T01:57:53.054Z,0.85
2022-11-04T02:00:19.574Z,0.82
2022-11-04T02:02:56.944Z,0.80
2022-11-04T02:05:23.380Z,0.77
2022-11-04T02:07:52.262Z,0.90
2022-11-04T02:10:22.285Z,0.95
2022-11-04T02:12:51.908Z,0.73
2022-11-04T02:15:26.069Z,0.93
2022-11-04T02:17:58.179Z,0.80
2022-11-04T02:20:37.806Z,0.73
2022-11-04T02:23:16.110Z,0.75
2022-11-04T02:26:06.819Z,1.10
2022-11-04T02:29:11.447Z,0.70
2022-11-04T02:32:06.306Z,0.80
2022-11-04T02:34:50.394Z,0.90
2022-11-04T02:37:35.171Z,1.02
2022-11-04T02:40:27.522Z,0.88
2022-11-04T02:43:09.360Z,0.93
2022-11-04T02:45:44.395Z,0.88
2022-11-04T02:48:16.866Z,0.80
2022-11-04T02:50:58.487Z,0.90
2022-11-04T02:53:35.779Z,1.00
2022-11-04T02:56:04.049Z,1.10
2022-11-04T02:58:35.530Z,0.70
2022-11-04T03:01:05.513Z,1.05
2022-11-04T03:03:38.829Z,0.70
2022-11-04T03:06:10.061Z,1.08
2022-11-04T03:08:43.517Z,1.17
2022-11-04T03:11:16.207Z,1.33
2022-11-04T03:14:05.515Z,1.08
2022-11-04T03:16:40.902Z,0.90
2022-11-04T03:19:16.375Z,0.95
2022-11-04T03:22:05.292Z,1.02
2022-11-04T03:24:32.239Z,0.90
2022-11-04T03:27:25.135Z,1.10
2022-11-04T03:30:07.993Z,1.10
2022-11-04T03:33:02.903Z,0.90
2022-11-04T03:35:29.557Z,1.02
2022-11-04T03:40:23.959Z,1.30
2022-11-04T03:43:00.962Z,1.00
2022-11-04T03:45:27.651Z,1.20
2022-11-04T03:47:56.637Z,0.80
2022-11-04T03:50:28.519Z,0.93
2022-11-04T03:53:00.231Z,0.70
2022-11-04T03:56:11.633Z,0.90
2022-11-04T03:58:40.757Z,1.08
2022-11-04T04:01:28.575Z,0.90
2022-11-04T04:04:07.231Z,0.80
2022-11-04T04:06:36.415Z,0.98
2022-11-04T04:09:13.094Z,1.02
2022-11-04T04:11:44.724Z,0.88
2022-11-04T04:14:39.118Z,1.15
2022-11-04T04:17:12.779Z,1.00
2022-11-04T04:19:42.860Z,0.90
2022-11-04T04:22:15.643Z,0.88
2022-11-04T04:25:05.731Z,1.20
2022-11-04T04:27:33.681Z,0.93
2022-11-04T04:30:08.578Z,1.20
2022-11-04T04:32:40.522Z,0.80
2022-11-04T04:35:28.018Z,1.00
2022-11-04T04:38:18.087Z,0.80
2022-11-04T04:41:08.836Z,0.73
2022-11-04T04:44:01.687Z,0.88
2022-11-04T04:46:29.536Z,0.88
2022-11-04T04:48:55.947Z,1.00
2022-11-04T04:51:22.708Z,0.88
2022-11-04T04:53:49.072Z,1.20
2022-11-04T04:56:15.460Z,0.80
2022-11-04T04:58:41.833Z,0.77
2022-11-04T05:01:09.055Z,0.85
2022-11-04T05:03:35.577Z,0.68
2022-11-04T05:08:28.694Z,1.00
2022-11-04T05:11:09.090Z,1.00
2022-11-04T05:13:37.445Z,0.95
2022-11-04T05:16:10.197Z,1.10
2022-11-04T05:18:37.490Z,0.90
2022-11-04T05:21:10.398Z,0.98
2022-11-04T05:23:36.938Z,0.90
2022-11-04T05:26:03.394Z,0.80
2022-11-04T05:28:30.038Z,1.10
2022-11-04T05:33:22.828Z,1.15
2022-11-04T05:35:49.312Z,0.70
2022-11-04T05:40:42.366Z,0.88
2022-11-04T05:43:09.393Z,0.80
2022-11-04T05:45:36.067Z,1.50
2022-11-04T05:48:04.930Z,1.02
2022-11-04T05:50:33.131Z,1.38
2022-11-04T05:53:00.798Z,1.48
2022-11-04T05:55:28.732Z,1.02
2022-11-04T05:57:55.356Z,1.45
2022-11-04T06:02:48.476Z,0.88
2022-11-04T06:05:15.311Z,1.10
2022-11-04T06:07:41.739Z,0.90
2022-11-04T06:10:08.466Z,1.08
2022-11-04T06:12:34.899Z,0.98
2022-11-04T06:15:01.566Z,1.10
2022-11-04T06:17:28.364Z,1.30
2022-11-04T06:19:55.027Z,1.45
2022-11-04T06:24:47.815Z,1.27
2022-11-04T06:27:14.243Z,1.00
2022-11-04T06:29:41.652Z,1.23
2022-11-04T06:32:09.658Z,0.70
2022-11-04T06:34:36.087Z,1.00
2022-11-04T06:37:02.742Z,1.10
2022-11-04T06:39:29.351Z,1.23
2022-11-04T06:44:27.914Z,1.00
2022-11-04T06:46:54.369Z,1.30
2022-11-04T06:51:49.030Z,1.20
2022-11-04T06:54:16.737Z,1.30
2022-11-04T06:56:43.925Z,1.45
2022-11-04T06:59:18.875Z,1.23
2022-11-04T07:01:45.990Z,1.98
2022-11-04T07:04:12.533Z,1.10
2022-11-04T07:06:44.074Z,1.40
2022-11-04T07:09:13.396Z,1.20
2022-11-04T07:11:40.661Z,0.77
2022-11-04T07:14:08.701Z,0.90
2022-11-04T07:16:35.112Z,1.38
2022-11-04T07:19:01.632Z,1.30
2022-11-04T07:21:28.435Z,1.27
2022-11-04T07:23:55.522Z,1.10
2022-11-04T07:26:21.948Z,1.10
2022-11-04T07:28:48.541Z,1.10
2022-11-04T07:33:51.314Z,1.23
2022-11-04T07:36:19.143Z,1.15
2022-11-04T07:38:46.144Z,3.28
2022-11-04T07:41:13.884Z,1.70
2022-11-04T07:43:40.366Z,3.33
2022-11-04T07:46:10.075Z,1.52
2022-11-04T07:48:37.437Z,1.25
2022-11-04T07:51:05.100Z,1.40
2022-11-04T07:53:32.794Z,1.27
2022-11-04T07:56:02.562Z,1.20
2022-11-04T07:58:29.896Z,1.27
2022-11-04T08:01:04.852Z,1.15
2022-11-04T08:03:31.360Z,1.40
2022-11-04T08:05:59.813Z,1.50
2022-11-04T08:08:27.713Z,1.83
2022-11-04T08:10:58.773Z,2.50
2022-11-04T08:13:28.888Z,2.10
2022-11-04T08:15:55.586Z,2.10
2022-11-04T08:20:53.610Z,2.70
2022-11-04T08:23:20.117Z,3.22
2022-11-04T08:25:47.224Z,4.80
2022-11-04T08:28:17.352Z,4.43
2022-11-04T08:31:12.950Z,3.78
2022-11-04T08:33:40.874Z,3.38
2022-11-04T08:36:10.740Z,6.43
2022-11-04T08:38:40.606Z,5.07
2022-11-04T08:41:08.976Z,3.28
2022-11-04T08:43:36.083Z,3.40
2022-11-04T08:46:06.039Z,3.58
2022-11-04T08:48:34.583Z,3.60
2022-11-04T08:51:01.860Z,3.05
2022-11-04T08:53:28.595Z,3.60
2022-11-04T08:55:55.446Z,3.55
2022-11-04T08:58:23.538Z,3.50
2022-11-04T09:00:50.488Z,3.25
2022-11-04T09:03:17.646Z,4.65
2022-11-04T09:05:47.319Z,6.28
2022-11-04T09:08:17.924Z,3.13
2022-11-04T09:10:46.386Z,1.80
2022-11-04T09:13:13.839Z,2.20
2022-11-04T09:15:40.305Z,1.27
2022-11-04T09:18:07.501Z,1.50
2022-11-04T09:20:38.284Z,1.70
2022-11-04T09:23:06.142Z,1.23
2022-11-04T09:25:33.094Z,1.27
2022-11-04T09:28:00.026Z,1.00
2022-11-04T09:30:26.761Z,1.50
2022-11-04T09:32:53.219Z,2.53
2022-11-04T09:35:20.114Z,2.30
2022-11-04T09:37:47.013Z,2.00
2022-11-04T09:40:23.640Z,1.77
2022-11-04T09:42:57.836Z,1.20
2022-11-04T09:45:28.849Z,1.17
2022-11-04T09:48:01.547Z,1.92
2022-11-04T09:50:34.093Z,2.88
2022-11-04T09:53:08.356Z,1.80
2022-11-04T09:55:41.728Z,1.95
2022-11-04T09:58:12.392Z,2.28
2022-11-04T10:00:45.069Z,2.45
2022-11-04T10:03:45.224Z,2.20
2022-11-04T10:06:27.101Z,1.90
2022-11-04T10:09:05.739Z,1.77
2022-11-04T10:11:58.337Z,2.30
2022-11-04T10:14:43.339Z,2.10
2022-11-04T10:17:33.528Z,1.92
2022-11-04T10:20:25.273Z,2.10
2022-11-04T10:23:02.667Z,2.10
2022-11-04T10:25:55.635Z,2.85
2022-11-04T10:28:28.125Z,2.47
2022-11-04T10:30:55.992Z,2.38
2022-11-04T10:33:52.177Z,2.08
2022-11-04T10:36:19.327Z,2.10
2022-11-04T10:38:57.252Z,1.50
2022-11-04T10:41:23.703Z,2.25
2022-11-04T10:44:08.369Z,1.50
2022-11-04T10:46:59.253Z,1.92
2022-11-04T10:50:21.793Z,1.70
2022-11-04T10:52:41.700Z,2.08
2022-11-04T10:55:37.990Z,1.77
2022-11-04T10:58:16.845Z,2.17
2022-11-04T11:00:43.364Z,3.10
2022-11-04T11:05:54.997Z,2.05
2022-11-04T11:08:33.434Z,1.80
2022-11-04T11:10:59.835Z,1.85
2022-11-04T11:13:34.202Z,2.00
2022-11-04T11:16:24.219Z,2.20
2022-11-04T11:19:17.556Z,2.15
2022-11-04T11:21:50.816Z,2.10
2022-11-04T11:24:30.667Z,2.03
2022-11-04T11:26:59.910Z,2.00
2022-11-04T11:29:31.991Z,2.58
2022-11-04T11:32:00.947Z,2.03
2022-11-04T11:34:38.886Z,2.13
2022-11-04T11:37:24.972Z,2.40
2022-11-04T11:39:51.375Z,2.30
2022-11-04T11:42:20.328Z,2.20
2022-11-04T11:44:56.237Z,2.28
2022-11-04T11:47:25.585Z,2.17
2022-11-04T11:50:16.078Z,2.70
2022-11-04T11:52:44.194Z,2.80
2022-11-04T11:55:21.403Z,2.25
2022-11-04T12:01:22.103Z,1.88
2022-11-04T12:10:01.005Z,1.43
2022-11-04T12:12:35.797Z,1.00
2022-11-04T12:15:25.336Z,1.52
2022-11-04T12:18:15.964Z,1.30
2022-11-04T12:20:52.951Z,1.80
2022-11-04T12:23:29.283Z,1.33
2022-11-04T12:26:06.189Z,1.13
2022-11-04T12:29:00.179Z,1.30
2022-11-04T12:32:01.960Z,1.23
2022-11-04T12:34:45.397Z,1.30
2022-11-04T12:37:30.974Z,1.05
2022-11-04T12:40:10.838Z,1.00
2022-11-04T12:43:01.566Z,0.98
2022-11-04T12:45:46.378Z,0.90
2022-11-04T12:48:44.610Z,1.20
2022-11-04T12:54:19.268Z,0.98
2022-11-04T12:56:52.974Z,1.17
2022-11-04T12:59:44.074Z,1.30
2022-11-04T13:02:22.162Z,1.10
2022-11-04T13:05:27.829Z,1.20
2022-11-04T13:08:08.564Z,1.10
2022-11-04T13:10:55.535Z,1.40
2022-11-04T13:13:27.904Z,1.20
2022-11-04T13:15:58.616Z,1.00
2022-11-04T13:18:30.598Z,1.00
2022-11-04T13:21:06.093Z,1.05
2022-11-04T13:24:01.275Z,1.20
2022-11-04T13:26:27.685Z,1.60
2022-11-04T13:29:08.306Z,1.20
2022-11-04T13:32:08.267Z,1.10
2022-11-04T13:34:57.371Z,0.95
2022-11-04T13:37:32.590Z,1.00
2022-11-04T13:40:06.107Z,1.17
2022-11-04T13:42:50.848Z,0.82
2022-11-04T13:45:20.046Z,1.00
2022-11-04T13:47:53.145Z,0.95
2022-11-04T13:50:40.580Z,0.90
2022-11-04T13:53:11.325Z,1.05
2022-11-04T13:55:49.881Z,0.90
2022-11-04T13:58:25.587Z,1.15
2022-11-04T14:01:27.804Z,1.00
2022-11-04T14:04:05.302Z,0.73
2022-11-04T14:06:50.589Z,0.95
2022-11-04T14:09:43.279Z,0.98
2022-11-04T14:12:18.927Z,1.00
2022-11-04T14:14:52.860Z,0.93
2022-11-04T14:17:34.641Z,1.08
2022-11-04T14:20:22.107Z,0.98
2022-11-04T14:22:51.735Z,1.10
2022-11-04T14:25:27.024Z,0.77
2022-11-04T14:28:09.852Z,0.93
2022-11-04T14:30:51.203Z,1.02
2022-11-04T14:33:29.109Z,0.90
2022-11-04T14:35:57.391Z,0.90
2022-11-04T14:38:30.175Z,1.13
2022-11-04T14:41:27.810Z,0.82
2022-11-04T14:43:55.570Z,0.90
2022-11-04T14:46:28.283Z,0.90
2022-11-04T14:48:57.238Z,1.08
2022-11-04T14:51:40.148Z,0.80
2022-11-04T14:54:16.111Z,0.80
2022-11-04T14:56:42.501Z,1.27
2022-11-04T14:59:21.191Z,0.98
2022-11-04T15:01:51.938Z,0.93
2022-11-04T15:04:27.450Z,0.90
2022-11-04T15:06:56.205Z,1.05
2022-11-04T15:09:28.777Z,0.90
2022-11-04T15:12:35.352Z,1.30
2022-11-04T15:15:01.766Z,0.90
2022-11-04T15:17:32.275Z,0.98
2022-11-04T15:20:00.976Z,0.98
2022-11-04T15:22:29.227Z,1.27
2022-11-04T15:24:56.777Z,1.00
2022-11-04T15:27:29.858Z,1.05
2022-11-04T15:30:02.740Z,0.90
2022-11-04T15:32:29.529Z,1.38
2022-11-04T15:34:57.626Z,1.30
2022-11-04T15:37:26.045Z,1.30
2022-11-04T15:39:56.581Z,1.02
2022-11-04T15:42:43.515Z,1.88
2022-11-04T15:45:22.006Z,1.20
2022-11-04T15:47:49.236Z,1.35
2022-11-04T15:50:23.042Z,1.30
2022-11-04T15:52:55.546Z,1.42
2022-11-04T15:55:25.489Z,1.30
2022-11-04T15:57:53.582Z,1.33
2022-11-04T16:00:24.791Z,1.30
2022-11-04T16:02:57.614Z,2.00
2022-11-04T16:05:37.859Z,1.40
2022-11-04T16:08:20.192Z,1.30
2022-11-04T16:10:47.652Z,1.50
2022-11-04T16:13:18.191Z,1.50
2022-11-04T16:15:53.484Z,1.40
2022-11-04T16:18:39.569Z,1.20
2022-11-04T16:21:14.090Z,1.48
2022-11-04T16:23:46.672Z,1.60
2022-11-04T16:26:13.344Z,1.67
2022-11-04T16:31:32.011Z,3.30
2022-11-04T16:34:02.101Z,2.45
2022-11-04T16:36:35.055Z,1.60
2022-11-04T16:39:04.679Z,1.98
2022-11-04T16:41:38.478Z,1.98
2022-11-04T16:44:14.532Z,1.95
2022-11-04T16:46:41.359Z,2.03
2022-11-04T16:49:09.452Z,3.50
2022-11-04T16:51:35.884Z,6.80
2022-11-04T16:54:02.598Z,7.85
2022-11-04T16:56:29.691Z,8.40
2022-11-04T16:58:56.238Z,6.93
2022-11-04T17:03:49.808Z,4.75
2022-11-04T17:06:16.936Z,4.22
2022-11-04T17:08:44.447Z,3.80
2022-11-04T17:11:11.178Z,3.20
2022-11-04T17:13:38.183Z,3.72
2022-11-04T17:16:06.585Z,3.28
2022-11-04T17:18:34.545Z,3.30
2022-11-04T17:21:06.174Z,3.20
2022-11-04T17:23:33.223Z,2.95
2022-11-04T17:26:00.356Z,3.42
2022-11-04T17:28:26.940Z,3.20
2022-11-04T17:33:20.287Z,2.30
2022-11-04T17:35:49.303Z,2.40
2022-11-04T17:38:17.352Z,2.30
2022-11-04T17:41:03.014Z,2.90
2022-11-04T17:43:48.418Z,2.92
2022-11-04T17:46:34.267Z,3.33
2022-11-04T17:49:07.014Z,3.65
2022-11-04T17:51:34.100Z,3.78
2022-11-04T17:54:00.558Z,3.50
2022-11-04T17:56:26.985Z,3.55
2022-11-04T17:58:54.032Z,8.00
2022-11-04T18:01:22.503Z,3.30
2022-11-04T18:03:52.154Z,3.60
2022-11-04T18:06:19.017Z,4.18
2022-11-04T18:08:46.213Z,8.55
2022-11-04T18:11:33.477Z,17.08
2022-11-04T18:14:00.108Z,9.07
2022-11-04T18:18:54.051Z,4.60
2022-11-04T18:21:20.525Z,4.13
2022-11-04T18:23:46.964Z,7.93
2022-11-04T18:26:13.616Z,10.55
2022-11-04T18:28:40.805Z,11.52
2022-11-04T18:31:12.108Z,5.72
2022-11-04T18:33:42.445Z,3.97
2022-11-04T18:36:10.795Z,3.55
2022-11-04T18:38:37.258Z,3.40
2022-11-04T18:41:03.831Z,3.50
2022-11-04T18:45:57.389Z,3.60
2022-11-04T18:48:23.905Z,4.00
2022-11-04T18:53:22.839Z,4.60
2022-11-04T18:55:52.403Z,9.80
2022-11-04T18:58:18.887Z,6.25
2022-11-04T19:00:45.295Z,4.75
2022-11-04T19:03:11.791Z,4.80
2022-11-04T19:08:08.504Z,5.78
2022-11-04T19:10:57.673Z,5.38
2022-11-04T19:13:25.690Z,5.65
2022-11-04T19:15:52.224Z,5.03
2022-11-04T19:18:18.938Z,4.82
2022-11-04T19:20:45.501Z,4.63
2022-11-04T19:25:41.392Z,4.68
2022-11-04T19:28:32.805Z,4.18
2022-11-04T19:31:00.750Z,4.57
2022-11-04T19:33:29.200Z,4.50
2022-11-04T19:35:57.350Z,3.47
2022-11-04T19:38:24.432Z,4.50
2022-11-04T19:40:52.300Z,3.55
2022-11-04T19:43:20.382Z,3.72
2022-11-04T19:45:49.515Z,4.60
2022-11-04T19:48:18.365Z,5.55
2022-11-04T19:50:48.189Z,3.20
2022-11-04T19:53:18.111Z,2.90
2022-11-04T19:55:50.855Z,2.78
2022-11-04T19:58:18.018Z,2.90
2022-11-04T20:00:47.163Z,2.28
2022-11-04T20:03:14.607Z,2.92
2022-11-04T20:05:43.448Z,2.17
2022-11-04T20:08:10.342Z,2.63
2022-11-04T20:10:40.217Z,2.60
2022-11-04T20:13:31.882Z,1.45
2022-11-04T20:15:58.947Z,1.35
2022-11-04T20:18:25.617Z,1.30
2022-11-04T20:20:52.584Z,1.40
2022-11-04T20:23:19.283Z,1.50
2022-11-04T20:25:45.893Z,1.17
2022-11-04T20:30:39.750Z,0.80
2022-11-04T20:33:07.209Z,0.80
2022-11-04T20:35:34.754Z,1.38
2022-11-04T20:38:01.179Z,0.90
2022-11-04T20:40:27.921Z,0.90
2022-11-04T20:42:54.836Z,0.90
2022-11-04T20:45:21.514Z,0.90
2022-11-04T20:50:15.074Z,0.80
2022-11-04T20:52:41.558Z,0.80
2022-11-04T20:55:10.029Z,0.88
2022-11-04T20:57:37.381Z,0.90
2022-11-04T21:00:07.308Z,1.23
2022-11-04T21:02:34.577Z,0.90
2022-11-04T21:05:01.805Z,0.88
2022-11-04T21:07:28.628Z,0.90
2022-11-04T21:09:55.218Z,0.90
2022-11-04T21:12:22.216Z,1.20
2022-11-04T21:14:48.877Z,1.00
2022-11-04T21:19:42.067Z,0.90
2022-11-04T21:22:08.647Z,0.80
2022-11-04T21:24:39.125Z,0.77
2022-11-04T21:27:06.510Z,0.93
2022-11-04T21:29:33.132Z,0.70
2022-11-04T21:34:26.053Z,0.60
2022-11-04T21:36:52.710Z,0.60
2022-11-04T21:41:46.448Z,0.90
2022-11-04T21:44:13.631Z,1.50
2022-11-04T21:46:46.437Z,0.90
2022-11-04T21:49:14.146Z,0.73
2022-11-04T21:51:40.538Z,5.18
2022-11-04T21:54:07.299Z,14.98
2022-11-04T21:56:34.988Z,1.63
2022-11-04T21:59:01.902Z,1.10
2022-11-04T22:01:29.574Z,1.00
2022-11-04T22:04:01.578Z,0.90
2022-11-04T22:06:34.265Z,1.08
2022-11-04T22:09:02.123Z,1.23
2022-11-04T22:11:30.901Z,1.20
2022-11-04T22:14:02.285Z,1.17
2022-11-04T22:16:31.542Z,1.48
2022-11-04T22:18:59.924Z,1.52
2022-11-04T22:21:28.665Z,1.70
2022-11-04T22:23:55.919Z,1.75
2022-11-04T22:26:24.588Z,1.70
2022-11-04T22:28:51.672Z,2.85
2022-11-04T22:31:39.125Z,2.75
2022-11-04T22:34:06.171Z,2.38
2022-11-04T22:36:33.646Z,2.03
2022-11-04T22:39:00.221Z,1.60
2022-11-04T22:43:58.843Z,1.90
2022-11-04T22:46:28.542Z,1.80
2022-11-04T22:48:55.297Z,1.60
2022-11-04T22:51:22.243Z,1.88
2022-11-04T22:53:56.951Z,1.70
2022-11-04T22:56:26.658Z,1.70
2022-11-04T22:58:54.089Z,1.90
2022-11-04T23:01:20.705Z,2.03
2022-11-04T23:06:15.542Z,2.40
2022-11-04T23:08:42.326Z,2.10
2022-11-04T23:11:34.323Z,2.42
2022-11-04T23:14:21.143Z,2.47
2022-11-04T23:17:09.095Z,2.42
2022-11-04T23:19:37.098Z,2.85
2022-11-04T23:22:22.569Z,2.50
2022-11-04T23:25:07.261Z,2.50
2022-11-04T23:27:54.096Z,2.70
2022-11-04T23:30:21.136Z,2.20
2022-11-04T23:32:59.214Z,2.67
2022-11-04T23:35:53.064Z,2.40
2022-11-04T23:38:19.734Z,2.55
2022-11-04T23:43:34.412Z,2.95
2022-11-04T23:46:19.969Z,2.72
2022-11-04T23:49:04.979Z,2.25
2022-11-04T23:51:49.907Z,2.45
2022-11-04T23:54:34.888Z,2.35
2022-11-04T23:57:19.610Z,2.40
